sensor_id;sensor_type;location;lat;lon;timestamp;temperature;humidity
66271;DHT22;53063;39.614;8.814;2024-02-04T00:00:45;10.10;99.90
66271;DHT22;53063;39.614;8.814;2024-02-04T00:03:11;10.00;99.90
66271;DHT22;53063;39.614;8.814;2024-02-04T00:05:37;10.00;99.90
66271;DHT22;53063;39.614;8.814;2024-02-04T00:08:03;9.90;99.90
66271;DHT22;53063;39.614;8.814;2024-02-04T00:10:29;10.00;99.90
66271;DHT22;53063;39.614;8.814;2024-02-04T00:12:55;10.10;99.90
66271;DHT22;53063;39.614;8.814;2024-02-04T00:15:21;10.00;99.90
66271;DHT22;53063;39.614;8.814;2024-02-04T00:17:47;9.80;99.90
66271;DHT22;53063;39.614;8.814;2024-02-04T00:20:13;9.60;99.90
66271;DHT22;53063;39.614;8.814;2024-02-04T00:22:39;9.60;99.90
66271;DHT22;53063;39.614;8.814;2024-02-04T00:25:05;9.50;99.90
66271;DHT22;53063;39.614;8.814;2024-02-04T00:27:32;9.40;99.90
66271;DHT22;53063;39.614;8.814;2024-02-04T00:29:58;9.40;99.90
66271;DHT22;53063;39.614;8.814;2024-02-04T00:32:25;9.40;99.90
66271;DHT22;53063;39.614;8.814;2024-02-04T00:34:52;9.40;99.90
66271;DHT22;53063;39.614;8.814;2024-02-04T00:37:18;9.50;99.90
66271;DHT22;53063;39.614;8.814;2024-02-04T00:39:44;9.40;99.90
66271;DHT22;53063;39.614;8.814;2024-02-04T00:42:10;9.40;99.90
66271;DHT22;53063;39.614;8.814;2024-02-04T00:44:36;9.40;99.90
66271;DHT22;53063;39.614;8.814;2024-02-04T00:47:02;9.30;99.90
66271;DHT22;53063;39.614;8.814;2024-02-04T00:49:28;9.20;99.90
66271;DHT22;53063;39.614;8.814;2024-02-04T00:51:54;9.30;99.90
66271;DHT22;53063;39.614;8.814;2024-02-04T00:54:20;9.70;99.90
66271;DHT22;53063;39.614;8.814;2024-02-04T00:56:46;10.00;99.90
66271;DHT22;53063;39.614;8.814;2024-02-04T00:59:12;10.00;99.90
66271;DHT22;53063;39.614;8.814;2024-02-04T01:01:38;9.70;99.90
66271;DHT22;53063;39.614;8.814;2024-02-04T01:04:04;9.80;99.90
66271;DHT22;53063;39.614;8.814;2024-02-04T01:06:30;10.00;99.90
66271;DHT22;53063;39.614;8.814;2024-02-04T01:08:56;10.10;99.90
66271;DHT22;53063;39.614;8.814;2024-02-04T01:11:23;10.30;99.90
66271;DHT22;53063;39.614;8.814;2024-02-04T01:13:48;10.40;99.90
66271;DHT22;53063;39.614;8.814;2024-02-04T01:16:14;10.30;99.90
66271;DHT22;53063;39.614;8.814;2024-02-04T01:18:40;10.30;99.90
66271;DHT22;53063;39.614;8.814;2024-02-04T01:21:06;10.30;99.90
66271;DHT22;53063;39.614;8.814;2024-02-04T01:23:34;10.30;99.90
66271;DHT22;53063;39.614;8.814;2024-02-04T01:26:00;10.30;99.90
66271;DHT22;53063;39.614;8.814;2024-02-04T01:28:26;10.30;99.90
66271;DHT22;53063;39.614;8.814;2024-02-04T01:30:52;10.30;99.90
66271;DHT22;53063;39.614;8.814;2024-02-04T01:33:18;10.30;99.90
66271;DHT22;53063;39.614;8.814;2024-02-04T01:35:44;10.30;99.90
66271;DHT22;53063;39.614;8.814;2024-02-04T01:38:10;10.30;99.90
66271;DHT22;53063;39.614;8.814;2024-02-04T01:40:35;10.20;99.90
66271;DHT22;53063;39.614;8.814;2024-02-04T01:43:01;10.20;99.90
66271;DHT22;53063;39.614;8.814;2024-02-04T01:45:27;10.10;99.90
66271;DHT22;53063;39.614;8.814;2024-02-04T01:47:54;10.10;99.90
66271;DHT22;53063;39.614;8.814;2024-02-04T01:50:20;10.00;99.90
66271;DHT22;53063;39.614;8.814;2024-02-04T01:52:47;10.10;99.90
66271;DHT22;53063;39.614;8.814;2024-02-04T01:55:14;10.00;99.90
66271;DHT22;53063;39.614;8.814;2024-02-04T01:57:40;9.60;99.90
66271;DHT22;53063;39.614;8.814;2024-02-04T02:00:08;9.40;99.90
66271;DHT22;53063;39.614;8.814;2024-02-04T02:02:39;9.20;99.90
66271;DHT22;53063;39.614;8.814;2024-02-04T02:05:06;9.10;99.90
66271;DHT22;53063;39.614;8.814;2024-02-04T02:07:32;9.00;99.90
66271;DHT22;53063;39.614;8.814;2024-02-04T02:09:57;9.10;99.90
66271;DHT22;53063;39.614;8.814;2024-02-04T02:12:26;9.20;99.90
66271;DHT22;53063;39.614;8.814;2024-02-04T02:15:11;9.10;99.90
66271;DHT22;53063;39.614;8.814;2024-02-04T02:17:47;9.10;99.90
66271;DHT22;53063;39.614;8.814;2024-02-04T02:20:23;9.10;99.90
66271;DHT22;53063;39.614;8.814;2024-02-04T02:23:12;9.10;99.90
66271;DHT22;53063;39.614;8.814;2024-02-04T02:25:40;9.00;99.90
66271;DHT22;53063;39.614;8.814;2024-02-04T02:28:07;9.00;99.90
66271;DHT22;53063;39.614;8.814;2024-02-04T02:30:33;9.30;99.90
66271;DHT22;53063;39.614;8.814;2024-02-04T02:32:59;9.60;99.90
66271;DHT22;53063;39.614;8.814;2024-02-04T02:35:26;9.80;99.90
66271;DHT22;53063;39.614;8.814;2024-02-04T02:40:54;10.00;99.90
66271;DHT22;53063;39.614;8.814;2024-02-04T02:43:21;10.00;99.90
66271;DHT22;53063;39.614;8.814;2024-02-04T02:45:47;10.10;99.90
66271;DHT22;53063;39.614;8.814;2024-02-04T02:48:14;10.10;99.90
66271;DHT22;53063;39.614;8.814;2024-02-04T02:50:40;10.00;99.90
66271;DHT22;53063;39.614;8.814;2024-02-04T02:53:06;10.00;99.90
66271;DHT22;53063;39.614;8.814;2024-02-04T02:55:32;9.90;99.90
66271;DHT22;53063;39.614;8.814;2024-02-04T02:57:58;9.90;99.90
66271;DHT22;53063;39.614;8.814;2024-02-04T03:00:24;9.80;99.90
66271;DHT22;53063;39.614;8.814;2024-02-04T03:02:49;9.80;99.90
66271;DHT22;53063;39.614;8.814;2024-02-04T03:05:16;9.80;99.90
66271;DHT22;53063;39.614;8.814;2024-02-04T03:07:42;9.80;99.90
66271;DHT22;53063;39.614;8.814;2024-02-04T03:10:08;9.70;99.90
66271;DHT22;53063;39.614;8.814;2024-02-04T03:12:34;9.70;99.90
66271;DHT22;53063;39.614;8.814;2024-02-04T03:15:00;9.70;99.90
66271;DHT22;53063;39.614;8.814;2024-02-04T03:17:26;9.80;99.90
66271;DHT22;53063;39.614;8.814;2024-02-04T03:19:52;9.80;99.90
66271;DHT22;53063;39.614;8.814;2024-02-04T03:22:21;9.70;99.90
66271;DHT22;53063;39.614;8.814;2024-02-04T03:24:50;9.40;99.90
66271;DHT22;53063;39.614;8.814;2024-02-04T03:27:17;9.10;99.90
66271;DHT22;53063;39.614;8.814;2024-02-04T03:29:45;9.00;99.90
66271;DHT22;53063;39.614;8.814;2024-02-04T03:32:11;9.10;99.90
66271;DHT22;53063;39.614;8.814;2024-02-04T03:34:37;9.00;99.90
66271;DHT22;53063;39.614;8.814;2024-02-04T03:37:05;9.10;99.90
66271;DHT22;53063;39.614;8.814;2024-02-04T03:39:31;9.10;99.90
66271;DHT22;53063;39.614;8.814;2024-02-04T03:41:57;9.20;99.90
66271;DHT22;53063;39.614;8.814;2024-02-04T03:44:23;9.30;99.90
66271;DHT22;53063;39.614;8.814;2024-02-04T03:46:50;9.30;99.90
66271;DHT22;53063;39.614;8.814;2024-02-04T03:49:17;9.20;99.90
66271;DHT22;53063;39.614;8.814;2024-02-04T03:51:43;9.10;99.90
66271;DHT22;53063;39.614;8.814;2024-02-04T03:54:09;9.00;99.90
66271;DHT22;53063;39.614;8.814;2024-02-04T03:56:35;8.90;99.90
66271;DHT22;53063;39.614;8.814;2024-02-04T03:59:02;8.90;99.90
66271;DHT22;53063;39.614;8.814;2024-02-04T04:01:28;8.90;99.90
66271;DHT22;53063;39.614;8.814;2024-02-04T04:03:53;8.80;99.90
66271;DHT22;53063;39.614;8.814;2024-02-04T04:06:19;8.90;99.90
66271;DHT22;53063;39.614;8.814;2024-02-04T04:08:45;9.00;99.90
66271;DHT22;53063;39.614;8.814;2024-02-04T04:11:11;9.10;99.90
66271;DHT22;53063;39.614;8.814;2024-02-04T04:13:37;9.10;99.90
66271;DHT22;53063;39.614;8.814;2024-02-04T04:16:05;9.20;99.90
66271;DHT22;53063;39.614;8.814;2024-02-04T04:18:31;9.20;99.90
66271;DHT22;53063;39.614;8.814;2024-02-04T04:20:57;9.10;99.90
66271;DHT22;53063;39.614;8.814;2024-02-04T04:23:23;9.10;99.90
66271;DHT22;53063;39.614;8.814;2024-02-04T04:25:49;9.00;99.90
66271;DHT22;53063;39.614;8.814;2024-02-04T04:28:15;9.10;99.90
66271;DHT22;53063;39.614;8.814;2024-02-04T04:30:41;9.10;99.90
66271;DHT22;53063;39.614;8.814;2024-02-04T04:33:07;9.10;99.90
66271;DHT22;53063;39.614;8.814;2024-02-04T04:35:33;9.20;99.90
66271;DHT22;53063;39.614;8.814;2024-02-04T04:38:00;9.10;99.90
66271;DHT22;53063;39.614;8.814;2024-02-04T04:40:26;9.20;99.90
66271;DHT22;53063;39.614;8.814;2024-02-04T04:42:51;9.10;99.90
66271;DHT22;53063;39.614;8.814;2024-02-04T04:45:17;9.00;99.90
66271;DHT22;53063;39.614;8.814;2024-02-04T04:47:43;8.90;99.90
66271;DHT22;53063;39.614;8.814;2024-02-04T04:50:09;8.90;99.90
66271;DHT22;53063;39.614;8.814;2024-02-04T04:52:35;8.90;99.90
66271;DHT22;53063;39.614;8.814;2024-02-04T04:55:01;9.00;99.90
66271;DHT22;53063;39.614;8.814;2024-02-04T04:57:28;9.00;99.90
66271;DHT22;53063;39.614;8.814;2024-02-04T04:59:54;9.00;99.90
66271;DHT22;53063;39.614;8.814;2024-02-04T05:02:20;8.90;99.90
66271;DHT22;53063;39.614;8.814;2024-02-04T05:04:46;8.80;99.90
66271;DHT22;53063;39.614;8.814;2024-02-04T05:07:13;8.80;99.90
66271;DHT22;53063;39.614;8.814;2024-02-04T05:09:39;8.80;99.90
66271;DHT22;53063;39.614;8.814;2024-02-04T05:12:07;8.80;99.90
66271;DHT22;53063;39.614;8.814;2024-02-04T05:14:34;8.80;99.90
66271;DHT22;53063;39.614;8.814;2024-02-04T05:17:00;8.90;99.90
66271;DHT22;53063;39.614;8.814;2024-02-04T05:19:26;9.10;99.90
66271;DHT22;53063;39.614;8.814;2024-02-04T05:21:51;9.30;99.90
66271;DHT22;53063;39.614;8.814;2024-02-04T05:24:17;9.40;99.90
66271;DHT22;53063;39.614;8.814;2024-02-04T05:26:43;9.40;99.90
66271;DHT22;53063;39.614;8.814;2024-02-04T05:29:09;9.40;99.90
66271;DHT22;53063;39.614;8.814;2024-02-04T05:31:43;9.70;99.90
66271;DHT22;53063;39.614;8.814;2024-02-04T05:34:09;9.80;99.90
66271;DHT22;53063;39.614;8.814;2024-02-04T05:36:35;9.90;99.90
66271;DHT22;53063;39.614;8.814;2024-02-04T05:39:11;9.90;99.90
66271;DHT22;53063;39.614;8.814;2024-02-04T05:41:38;10.00;99.90
66271;DHT22;53063;39.614;8.814;2024-02-04T05:44:04;10.00;99.90
66271;DHT22;53063;39.614;8.814;2024-02-04T05:46:30;10.10;99.90
66271;DHT22;53063;39.614;8.814;2024-02-04T05:48:56;10.00;99.90
66271;DHT22;53063;39.614;8.814;2024-02-04T05:51:22;10.10;99.90
66271;DHT22;53063;39.614;8.814;2024-02-04T05:53:48;10.10;99.90
66271;DHT22;53063;39.614;8.814;2024-02-04T05:56:14;10.10;99.90
66271;DHT22;53063;39.614;8.814;2024-02-04T05:58:40;10.10;99.90
66271;DHT22;53063;39.614;8.814;2024-02-04T06:01:06;10.10;99.90
66271;DHT22;53063;39.614;8.814;2024-02-04T06:03:32;10.00;99.90
66271;DHT22;53063;39.614;8.814;2024-02-04T06:05:57;9.90;99.90
66271;DHT22;53063;39.614;8.814;2024-02-04T06:08:23;9.90;99.90
66271;DHT22;53063;39.614;8.814;2024-02-04T06:10:49;9.90;99.90
66271;DHT22;53063;39.614;8.814;2024-02-04T06:13:15;10.00;99.90
66271;DHT22;53063;39.614;8.814;2024-02-04T06:15:42;10.00;99.90
66271;DHT22;53063;39.614;8.814;2024-02-04T06:18:07;10.00;99.90
66271;DHT22;53063;39.614;8.814;2024-02-04T06:20:33;10.00;99.90
66271;DHT22;53063;39.614;8.814;2024-02-04T06:22:59;10.00;99.90
66271;DHT22;53063;39.614;8.814;2024-02-04T06:25:26;10.00;99.90
66271;DHT22;53063;39.614;8.814;2024-02-04T06:27:52;10.10;99.90
66271;DHT22;53063;39.614;8.814;2024-02-04T06:30:18;10.00;99.90
66271;DHT22;53063;39.614;8.814;2024-02-04T06:32:44;9.90;99.90
66271;DHT22;53063;39.614;8.814;2024-02-04T06:35:10;9.90;99.90
66271;DHT22;53063;39.614;8.814;2024-02-04T06:37:36;9.80;99.90
66271;DHT22;53063;39.614;8.814;2024-02-04T06:40:01;9.90;99.90
66271;DHT22;53063;39.614;8.814;2024-02-04T06:42:27;9.90;99.90
66271;DHT22;53063;39.614;8.814;2024-02-04T06:44:53;10.00;99.90
66271;DHT22;53063;39.614;8.814;2024-02-04T06:47:19;10.10;99.90
66271;DHT22;53063;39.614;8.814;2024-02-04T06:49:45;10.20;99.90
66271;DHT22;53063;39.614;8.814;2024-02-04T06:52:11;10.30;99.90
66271;DHT22;53063;39.614;8.814;2024-02-04T06:54:37;10.20;99.90
66271;DHT22;53063;39.614;8.814;2024-02-04T06:57:03;10.20;99.90
66271;DHT22;53063;39.614;8.814;2024-02-04T06:59:29;10.20;99.90
66271;DHT22;53063;39.614;8.814;2024-02-04T07:01:55;10.20;99.90
66271;DHT22;53063;39.614;8.814;2024-02-04T07:04:21;10.30;99.90
66271;DHT22;53063;39.614;8.814;2024-02-04T07:06:48;10.30;99.90
66271;DHT22;53063;39.614;8.814;2024-02-04T07:09:13;10.50;99.90
66271;DHT22;53063;39.614;8.814;2024-02-04T07:11:39;10.60;99.90
66271;DHT22;53063;39.614;8.814;2024-02-04T07:14:05;10.60;99.90
66271;DHT22;53063;39.614;8.814;2024-02-04T07:16:31;10.60;99.90
66271;DHT22;53063;39.614;8.814;2024-02-04T07:18:57;10.70;99.90
66271;DHT22;53063;39.614;8.814;2024-02-04T07:21:23;10.90;99.90
66271;DHT22;53063;39.614;8.814;2024-02-04T07:23:49;10.90;99.90
66271;DHT22;53063;39.614;8.814;2024-02-04T07:26:15;10.90;99.90
66271;DHT22;53063;39.614;8.814;2024-02-04T07:28:41;11.00;99.90
66271;DHT22;53063;39.614;8.814;2024-02-04T07:31:07;11.20;99.90
66271;DHT22;53063;39.614;8.814;2024-02-04T07:33:33;11.70;99.90
66271;DHT22;53063;39.614;8.814;2024-02-04T07:35:59;13.10;99.90
66271;DHT22;53063;39.614;8.814;2024-02-04T07:38:25;13.70;99.90
66271;DHT22;53063;39.614;8.814;2024-02-04T07:40:51;12.90;99.90
66271;DHT22;53063;39.614;8.814;2024-02-04T07:43:16;12.50;99.90
66271;DHT22;53063;39.614;8.814;2024-02-04T07:45:42;12.30;99.90
66271;DHT22;53063;39.614;8.814;2024-02-04T07:48:08;12.10;99.90
66271;DHT22;53063;39.614;8.814;2024-02-04T07:50:35;12.10;99.90
66271;DHT22;53063;39.614;8.814;2024-02-04T07:53:01;11.80;99.90
66271;DHT22;53063;39.614;8.814;2024-02-04T07:55:27;11.80;99.90
66271;DHT22;53063;39.614;8.814;2024-02-04T07:57:53;12.70;99.90
66271;DHT22;53063;39.614;8.814;2024-02-04T08:00:19;14.60;99.90
66271;DHT22;53063;39.614;8.814;2024-02-04T08:02:45;17.90;99.90
66271;DHT22;53063;39.614;8.814;2024-02-04T08:05:11;16.80;99.90
66271;DHT22;53063;39.614;8.814;2024-02-04T08:07:37;15.30;99.90
66271;DHT22;53063;39.614;8.814;2024-02-04T08:10:03;17.60;99.90
66271;DHT22;53063;39.614;8.814;2024-02-04T08:12:29;15.30;99.90
66271;DHT22;53063;39.614;8.814;2024-02-04T08:14:55;14.70;99.90
66271;DHT22;53063;39.614;8.814;2024-02-04T08:17:20;15.50;99.90
66271;DHT22;53063;39.614;8.814;2024-02-04T08:19:46;19.30;99.90
66271;DHT22;53063;39.614;8.814;2024-02-04T08:22:12;21.60;99.90
66271;DHT22;53063;39.614;8.814;2024-02-04T08:24:38;22.70;86.70
66271;DHT22;53063;39.614;8.814;2024-02-04T08:27:04;22.90;77.80
66271;DHT22;53063;39.614;8.814;2024-02-04T08:29:30;23.10;76.10
66271;DHT22;53063;39.614;8.814;2024-02-04T08:31:56;24.50;71.80
66271;DHT22;53063;39.614;8.814;2024-02-04T08:34:22;24.30;67.30
66271;DHT22;53063;39.614;8.814;2024-02-04T08:36:52;24.70;67.20
66271;DHT22;53063;39.614;8.814;2024-02-04T08:39:18;25.00;63.30
66271;DHT22;53063;39.614;8.814;2024-02-04T08:41:44;25.10;63.20
66271;DHT22;53063;39.614;8.814;2024-02-04T08:44:10;25.40;60.80
66271;DHT22;53063;39.614;8.814;2024-02-04T08:46:35;26.10;59.50
66271;DHT22;53063;39.614;8.814;2024-02-04T08:49:01;25.60;58.60
66271;DHT22;53063;39.614;8.814;2024-02-04T08:51:27;25.40;58.90
66271;DHT22;53063;39.614;8.814;2024-02-04T08:53:53;24.00;62.20
66271;DHT22;53063;39.614;8.814;2024-02-04T08:56:19;23.60;67.20
66271;DHT22;53063;39.614;8.814;2024-02-04T08:58:45;25.20;62.50
66271;DHT22;53063;39.614;8.814;2024-02-04T09:01:11;24.60;63.40
66271;DHT22;53063;39.614;8.814;2024-02-04T09:03:37;24.80;62.00
66271;DHT22;53063;39.614;8.814;2024-02-04T09:06:03;25.70;59.00
66271;DHT22;53063;39.614;8.814;2024-02-04T09:08:30;26.20;58.60
66271;DHT22;53063;39.614;8.814;2024-02-04T09:10:56;27.70;54.50
66271;DHT22;53063;39.614;8.814;2024-02-04T09:13:22;26.60;54.40
66271;DHT22;53063;39.614;8.814;2024-02-04T09:15:49;27.20;53.70
66271;DHT22;53063;39.614;8.814;2024-02-04T09:18:15;27.20;54.40
66271;DHT22;53063;39.614;8.814;2024-02-04T09:20:41;27.30;50.80
66271;DHT22;53063;39.614;8.814;2024-02-04T09:23:07;23.90;59.90
66271;DHT22;53063;39.614;8.814;2024-02-04T09:25:33;27.10;55.50
66271;DHT22;53063;39.614;8.814;2024-02-04T09:27:59;29.30;49.30
66271;DHT22;53063;39.614;8.814;2024-02-04T09:30:25;29.80;46.80
66271;DHT22;53063;39.614;8.814;2024-02-04T09:32:51;29.40;45.90
66271;DHT22;53063;39.614;8.814;2024-02-04T09:35:17;29.40;47.10
66271;DHT22;53063;39.614;8.814;2024-02-04T09:37:43;29.20;46.70
66271;DHT22;53063;39.614;8.814;2024-02-04T09:40:10;30.60;44.30
66271;DHT22;53063;39.614;8.814;2024-02-04T09:42:36;30.70;43.20
66271;DHT22;53063;39.614;8.814;2024-02-04T09:45:02;30.60;42.90
66271;DHT22;53063;39.614;8.814;2024-02-04T09:47:29;30.80;41.90
66271;DHT22;53063;39.614;8.814;2024-02-04T09:49:55;30.50;41.90
66271;DHT22;53063;39.614;8.814;2024-02-04T09:52:28;30.20;42.70
66271;DHT22;53063;39.614;8.814;2024-02-04T09:54:59;30.60;41.70
66271;DHT22;53063;39.614;8.814;2024-02-04T09:57:26;29.30;42.30
66271;DHT22;53063;39.614;8.814;2024-02-04T09:59:52;30.40;40.30
66271;DHT22;53063;39.614;8.814;2024-02-04T10:02:18;28.90;43.10
66271;DHT22;53063;39.614;8.814;2024-02-04T10:04:45;29.30;42.00
66271;DHT22;53063;39.614;8.814;2024-02-04T10:07:12;27.20;47.70
66271;DHT22;53063;39.614;8.814;2024-02-04T10:09:40;25.70;50.90
66271;DHT22;53063;39.614;8.814;2024-02-04T10:12:06;26.80;48.00
66271;DHT22;53063;39.614;8.814;2024-02-04T10:14:34;25.90;48.90
66271;DHT22;53063;39.614;8.814;2024-02-04T10:17:00;27.60;46.50
66271;DHT22;53063;39.614;8.814;2024-02-04T10:19:25;28.10;47.00
66271;DHT22;53063;39.614;8.814;2024-02-04T10:22:01;24.30;51.20
66271;DHT22;53063;39.614;8.814;2024-02-04T10:24:28;27.00;49.00
66271;DHT22;53063;39.614;8.814;2024-02-04T10:26:57;30.50;40.70
66271;DHT22;53063;39.614;8.814;2024-02-04T10:29:24;30.90;39.40
66271;DHT22;53063;39.614;8.814;2024-02-04T10:31:56;31.30;38.70
66271;DHT22;53063;39.614;8.814;2024-02-04T10:34:26;31.40;39.00
66271;DHT22;53063;39.614;8.814;2024-02-04T10:36:53;31.30;38.10
66271;DHT22;53063;39.614;8.814;2024-02-04T10:39:19;31.00;37.30
66271;DHT22;53063;39.614;8.814;2024-02-04T10:41:49;26.60;43.10
66271;DHT22;53063;39.614;8.814;2024-02-04T10:44:23;26.50;47.00
66271;DHT22;53063;39.614;8.814;2024-02-04T10:46:51;30.60;38.90
66271;DHT22;53063;39.614;8.814;2024-02-04T10:49:19;31.70;38.10
66271;DHT22;53063;39.614;8.814;2024-02-04T10:51:45;28.70;40.60
66271;DHT22;53063;39.614;8.814;2024-02-04T10:54:14;22.70;53.30
66271;DHT22;53063;39.614;8.814;2024-02-04T10:56:45;21.70;64.00
66271;DHT22;53063;39.614;8.814;2024-02-04T10:59:14;21.10;60.60
66271;DHT22;53063;39.614;8.814;2024-02-04T11:01:43;22.10;59.90
66271;DHT22;53063;39.614;8.814;2024-02-04T11:04:11;21.40;62.70
66271;DHT22;53063;39.614;8.814;2024-02-04T11:06:44;21.30;63.50
66271;DHT22;53063;39.614;8.814;2024-02-04T11:09:11;22.30;61.70
66271;DHT22;53063;39.614;8.814;2024-02-04T11:11:38;21.80;62.60
66271;DHT22;53063;39.614;8.814;2024-02-04T11:14:11;21.50;63.70
66271;DHT22;53063;39.614;8.814;2024-02-04T11:20:00;21.20;63.40
66271;DHT22;53063;39.614;8.814;2024-02-04T11:27:54;20.20;68.90
66271;DHT22;53063;39.614;8.814;2024-02-04T11:30:20;19.60;70.60
66271;DHT22;53063;39.614;8.814;2024-02-04T11:32:47;20.00;71.50
66271;DHT22;53063;39.614;8.814;2024-02-04T11:35:14;20.50;70.70
66271;DHT22;53063;39.614;8.814;2024-02-04T11:37:40;21.00;67.80
66271;DHT22;53063;39.614;8.814;2024-02-04T11:40:13;20.70;65.50
66271;DHT22;53063;39.614;8.814;2024-02-04T11:42:39;19.70;68.10
66271;DHT22;53063;39.614;8.814;2024-02-04T11:45:13;19.70;71.20
66271;DHT22;53063;39.614;8.814;2024-02-04T11:47:40;20.50;68.80
66271;DHT22;53063;39.614;8.814;2024-02-04T11:50:06;20.40;67.10
66271;DHT22;53063;39.614;8.814;2024-02-04T11:52:33;20.20;67.80
66271;DHT22;53063;39.614;8.814;2024-02-04T11:54:59;20.10;67.30
66271;DHT22;53063;39.614;8.814;2024-02-04T11:57:25;20.20;67.70
66271;DHT22;53063;39.614;8.814;2024-02-04T11:59:53;20.40;65.80
66271;DHT22;53063;39.614;8.814;2024-02-04T12:02:20;20.30;67.10
66271;DHT22;53063;39.614;8.814;2024-02-04T12:04:47;20.80;65.20
66271;DHT22;53063;39.614;8.814;2024-02-04T12:07:14;20.80;63.00
66271;DHT22;53063;39.614;8.814;2024-02-04T12:09:40;20.70;64.70
66271;DHT22;53063;39.614;8.814;2024-02-04T12:12:07;21.00;65.00
66271;DHT22;53063;39.614;8.814;2024-02-04T12:14:35;21.00;63.00
66271;DHT22;53063;39.614;8.814;2024-02-04T12:17:08;20.80;61.80
66271;DHT22;53063;39.614;8.814;2024-02-04T12:19:38;21.20;61.60
66271;DHT22;53063;39.614;8.814;2024-02-04T12:22:05;21.30;61.00
66271;DHT22;53063;39.614;8.814;2024-02-04T12:24:37;21.10;62.10
66271;DHT22;53063;39.614;8.814;2024-02-04T12:27:04;20.80;64.30
66271;DHT22;53063;39.614;8.814;2024-02-04T12:29:31;20.90;63.90
66271;DHT22;53063;39.614;8.814;2024-02-04T12:32:01;20.80;62.10
66271;DHT22;53063;39.614;8.814;2024-02-04T12:34:30;20.90;62.40
66271;DHT22;53063;39.614;8.814;2024-02-04T12:37:01;20.90;64.20
66271;DHT22;53063;39.614;8.814;2024-02-04T12:39:27;21.30;63.20
66271;DHT22;53063;39.614;8.814;2024-02-04T12:41:54;20.80;63.40
66271;DHT22;53063;39.614;8.814;2024-02-04T12:44:20;20.70;64.10
66271;DHT22;53063;39.614;8.814;2024-02-04T12:46:50;20.60;64.40
66271;DHT22;53063;39.614;8.814;2024-02-04T12:49:19;20.50;64.40
66271;DHT22;53063;39.614;8.814;2024-02-04T12:51:47;20.40;64.70
66271;DHT22;53063;39.614;8.814;2024-02-04T12:54:13;20.30;66.60
66271;DHT22;53063;39.614;8.814;2024-02-04T12:56:49;20.40;67.00
66271;DHT22;53063;39.614;8.814;2024-02-04T12:59:32;20.00;67.20
66271;DHT22;53063;39.614;8.814;2024-02-04T13:02:01;18.80;70.20
66271;DHT22;53063;39.614;8.814;2024-02-04T13:04:37;18.60;72.50
66271;DHT22;53063;39.614;8.814;2024-02-04T13:07:07;18.80;72.70
66271;DHT22;53063;39.614;8.814;2024-02-04T13:09:35;18.50;72.90
66271;DHT22;53063;39.614;8.814;2024-02-04T13:12:09;18.20;74.50
66271;DHT22;53063;39.614;8.814;2024-02-04T13:14:38;18.50;74.90
66271;DHT22;53063;39.614;8.814;2024-02-04T13:17:07;18.80;73.20
66271;DHT22;53063;39.614;8.814;2024-02-04T13:19:36;18.80;73.40
66271;DHT22;53063;39.614;8.814;2024-02-04T13:22:03;19.20;73.30
66271;DHT22;53063;39.614;8.814;2024-02-04T13:24:30;18.50;74.30
66271;DHT22;53063;39.614;8.814;2024-02-04T13:26:57;18.70;74.00
66271;DHT22;53063;39.614;8.814;2024-02-04T13:29:23;18.50;76.10
66271;DHT22;53063;39.614;8.814;2024-02-04T13:31:49;19.30;72.60
66271;DHT22;53063;39.614;8.814;2024-02-04T13:34:15;19.60;71.00
66271;DHT22;53063;39.614;8.814;2024-02-04T13:36:42;19.90;68.40
66271;DHT22;53063;39.614;8.814;2024-02-04T13:39:08;19.80;70.20
66271;DHT22;53063;39.614;8.814;2024-02-04T13:41:35;20.10;68.50
66271;DHT22;53063;39.614;8.814;2024-02-04T13:44:01;20.00;68.20
66271;DHT22;53063;39.614;8.814;2024-02-04T13:46:27;20.10;69.00
66271;DHT22;53063;39.614;8.814;2024-02-04T13:48:53;20.40;67.50
66271;DHT22;53063;39.614;8.814;2024-02-04T13:51:19;20.50;68.30
66271;DHT22;53063;39.614;8.814;2024-02-04T13:53:45;20.70;66.80
66271;DHT22;53063;39.614;8.814;2024-02-04T13:56:12;20.20;67.60
66271;DHT22;53063;39.614;8.814;2024-02-04T13:58:38;20.40;67.50
66271;DHT22;53063;39.614;8.814;2024-02-04T14:01:03;20.40;67.50
66271;DHT22;53063;39.614;8.814;2024-02-04T14:03:29;19.90;69.70
66271;DHT22;53063;39.614;8.814;2024-02-04T14:05:55;19.10;71.30
66271;DHT22;53063;39.614;8.814;2024-02-04T14:08:21;19.40;73.70
66271;DHT22;53063;39.614;8.814;2024-02-04T14:10:47;20.00;71.10
66271;DHT22;53063;39.614;8.814;2024-02-04T14:13:13;20.30;69.80
66271;DHT22;53063;39.614;8.814;2024-02-04T14:15:39;20.50;68.40
66271;DHT22;53063;39.614;8.814;2024-02-04T14:18:05;20.60;68.70
66271;DHT22;53063;39.614;8.814;2024-02-04T14:20:31;20.20;69.80
66271;DHT22;53063;39.614;8.814;2024-02-04T14:22:57;20.00;70.50
66271;DHT22;53063;39.614;8.814;2024-02-04T14:25:24;19.40;72.60
66271;DHT22;53063;39.614;8.814;2024-02-04T14:27:50;18.70;75.30
66271;DHT22;53063;39.614;8.814;2024-02-04T14:30:16;18.30;78.10
66271;DHT22;53063;39.614;8.814;2024-02-04T14:32:42;18.10;79.80
66271;DHT22;53063;39.614;8.814;2024-02-04T14:35:08;17.90;79.80
66271;DHT22;53063;39.614;8.814;2024-02-04T14:37:36;17.90;81.50
66271;DHT22;53063;39.614;8.814;2024-02-04T14:40:03;18.30;81.50
66271;DHT22;53063;39.614;8.814;2024-02-04T14:42:33;18.60;80.30
66271;DHT22;53063;39.614;8.814;2024-02-04T14:44:59;18.60;79.50
66271;DHT22;53063;39.614;8.814;2024-02-04T14:47:26;18.60;79.90
66271;DHT22;53063;39.614;8.814;2024-02-04T14:49:53;18.30;79.20
66271;DHT22;53063;39.614;8.814;2024-02-04T14:52:19;17.70;81.00
66271;DHT22;53063;39.614;8.814;2024-02-04T14:54:45;17.80;82.00
66271;DHT22;53063;39.614;8.814;2024-02-04T14:57:11;17.50;83.70
66271;DHT22;53063;39.614;8.814;2024-02-04T14:59:38;17.30;85.30
66271;DHT22;53063;39.614;8.814;2024-02-04T15:02:04;17.50;86.40
66271;DHT22;53063;39.614;8.814;2024-02-04T15:04:32;17.90;85.30
66271;DHT22;53063;39.614;8.814;2024-02-04T15:06:59;18.00;83.20
66271;DHT22;53063;39.614;8.814;2024-02-04T15:09:31;18.10;82.50
66271;DHT22;53063;39.614;8.814;2024-02-04T15:11:58;18.30;82.40
66271;DHT22;53063;39.614;8.814;2024-02-04T15:14:24;18.30;81.80
66271;DHT22;53063;39.614;8.814;2024-02-04T15:16:50;18.40;80.50
66271;DHT22;53063;39.614;8.814;2024-02-04T15:19:17;18.10;80.40
66271;DHT22;53063;39.614;8.814;2024-02-04T15:21:43;18.00;80.80
66271;DHT22;53063;39.614;8.814;2024-02-04T15:24:09;17.80;81.30
66271;DHT22;53063;39.614;8.814;2024-02-04T15:26:35;17.30;82.70
66271;DHT22;53063;39.614;8.814;2024-02-04T15:29:06;17.30;84.70
66271;DHT22;53063;39.614;8.814;2024-02-04T15:31:32;17.30;85.70
66271;DHT22;53063;39.614;8.814;2024-02-04T15:34:02;17.00;87.00
66271;DHT22;53063;39.614;8.814;2024-02-04T15:36:30;16.80;88.30
66271;DHT22;53063;39.614;8.814;2024-02-04T15:38:58;16.90;89.70
66271;DHT22;53063;39.614;8.814;2024-02-04T15:41:23;16.90;90.60
66271;DHT22;53063;39.614;8.814;2024-02-04T15:43:49;16.80;91.20